Bayswater, United Kingdom
Current Conditions -  °F | °C
As of 1:20 PM on Friday 24 Oct 2014 (Local Time) from EGLC Reporting Station
Broken Clouds Broken Clouds  
Wind Chill: 63°   Ceiling: 2600
Heat Index: 63°   Visibility: 6mi
Dew Point: 55°   Wind: 8mph
Humidity: 77%   Direction: 220°SW
Pressure: 29.94"   Gusts: NA
Location:  51.51°N, 0.18°W
Report Text: EGLC 241220Z 22007KT 9999 FEW016 BKN026 17/13 Q1014
Loading
Personal Weather Stations






























Interactive Weather Map
Tropical Storm Tracking
New forecast layout! Learn more

10-Day Weather Forecast

Advertisements
Track Severe Weather on mobile